Airfield :
LOGIN :

Register | Disclaimer

   EN    FR    IT 

 










Legend :    VFR   Marginal VFR   IFR   Intensive IFR   Very Intensive IFR
Visi :
Ceiling :
>= 8 km
>= 3000ft
5 to 8 km
1000 to 3000 ft
1500m to 5 km
500 to 1000 ft
800 to 1500m
200 to 500 ft
< 800m
< 200 ft
Symbols :   Thunderstorms  Fog  Heavy snow  Heavy precipitations  Wind > 20 kt
SIGMETs :     Misc.  Thunderstorms  Icing  Turbulence  Mountain Waves  Volcanic Ashes







- Airport Elevation : 362 ft
- IATA code : WAW


EPWA - Warsaw Okecie

CURRENT METAR :
  • 200100Z 27006KT 9999 BKN009 01/M01 Q1009 R33/2///95 NOSIG

EXPIRED METARs :
  • 200030Z 26005KT 220V290 9999 BKN008 01/M01 Q1009 R33/2///95 NOSIG
  • 200000Z 25005KT 210V280 9999 BKN009 01/M01 Q1009 R33/2///95 TEMPO BKN010
  • 192330Z 26004KT 9999 BKN008 01/M01 Q1009 R33/2///95 NOSIG
  • 192300Z 26005KT 230V290 9999 BKN008 01/M01 Q1008 R33/2///95 NOSIG
  • 192230Z 26005KT 220V280 9999 OVC009 01/M01 Q1008 R33/2///95 NOSIG

TAF TAF EPWA
Valid from the 20 at 00:00 until the 21 at 00:00 UTC


192330Z 2000/2024 27010KT 8000 BKN015
TEMPO 2000/2024 4000 -SN BR BKN008
BECMG 2002/2005 21005KT
PROB40
TEMPO 2009/2021 2000 SN SNRA BR BKN004
No reported NOTAMs for that airfield.



MET'MAP, your aeronautical weather chart ! - Copyright ORBIFLY December 2007 - Disclaimer

ORBIFLY MET'MAP TEAM :

Programming & Development : Alexandra Zaïnal
Concept & Development : Baudouin d'Aumeries
Co-Development & Prog : Marc-Olivier Méhu
Technical & hardware support : Manuel Goepfert

Contact : metmap@orbifly.com




SOURCES & CREDITS :

   NOAA